YSNW/NOA METAR and TAF weather

Enter ICAO airport designator
Station Type Date Time Source
YSNW METAR 2019/06/26 05:00 UTC NOAA

YSNW 260500Z 12005KT 9999 FEW039 BKN055 16/06 Q1034 NOSIG


Station Type Date Time Source
YSNW Decoded METAR 2019/06/26 05:00 UTC NOAA

Nowra Ran Air Station, Australia (YSNW) 34-57S 150-32E 110M
Jun 26, 2019 - 01:00 AM EDT / 2019.06.26 0500 UTC
Wind: from the ESE (120 degrees) at 6 MPH (5 KT):0
Visibility: greater than 7 mile(s):0
Sky conditions: mostly cloudy
Temperature: 60 F (16 C)
Dew Point: 42 F (6 C)
Relative Humidity: 51%
Pressure (altimeter): 30.53 in. Hg (1034 hPa)
ob: YSNW 260500Z 12005KT 9999 FEW039 BKN055 16/06 Q1034 NOSIG
cycle: 5

Station Type Date Time Source
YSNW TAF UTC NOAA

Error!

Example: see airport list